Time,TemperatureF,DewpointF,PressureIn,WindDirection,WindDirectionDegrees,WindSpeedMPH,WindSpeedGustMPH,Humidity,HourlyPrecipIn,Conditions,Clouds,dailyrainin,SoftwareType,DateUTC
2013-05-04 00:02:00,61.0,45.0,30.22,ESE,105,3.0,-999.0,56,-99.99,,,-99.99,,2013-05-04 04:02:00,
2013-05-04 00:13:00,61.0,45.0,30.22,ESE,105,3.0,-999.0,56,-99.99,,,-99.99,,2013-05-04 04:13:00,
2013-05-04 00:23:00,61.0,45.0,30.22,ESE,103,3.0,-999.0,55,-99.99,,,-99.99,,2013-05-04 04:23:00,
2013-05-04 00:33:00,61.0,45.0,30.22,ESE,123,3.0,-999.0,55,-99.99,,,-99.99,,2013-05-04 04:33:00,
2013-05-04 00:42:00,61.0,45.0,30.22,ESE,123,3.0,-999.0,55,-99.99,,,-99.99,,2013-05-04 04:42:00,
2013-05-04 00:53:00,60.0,45.0,30.22,ESE,111,3.0,-999.0,57,-99.99,,,-99.99,,2013-05-04 04:53:00,
2013-05-04 01:02:00,57.0,44.0,30.22,ESE,105,1.0,-999.0,62,-99.99,,,-99.99,,2013-05-04 05:02:00,
2013-05-04 01:12:00,57.0,44.0,30.22,ESE,105,1.0,-999.0,62,-99.99,,,-99.99,,2013-05-04 05:12:00,
2013-05-04 01:22:00,54.0,43.0,30.22,ESE,105,0.0,-999.0,67,-99.99,,,-99.99,,2013-05-04 05:22:00,
2013-05-04 01:32:00,54.0,44.0,30.22,ESE,105,0.0,-999.0,69,-99.99,,,-99.99,,2013-05-04 05:32:00,
2013-05-04 01:43:00,54.0,44.0,30.22,ESE,105,0.0,-999.0,69,-99.99,,,-99.99,,2013-05-04 05:43:00,
2013-05-04 01:52:00,53.0,43.0,30.22,ESE,105,0.0,-999.0,70,-99.99,,,-99.99,,2013-05-04 05:52:00,
2013-05-04 02:01:00,53.0,44.0,30.22,ESE,105,0.0,-999.0,71,-99.99,,,-99.99,,2013-05-04 06:01:00,
2013-05-04 02:11:00,53.0,44.0,30.22,ESE,105,0.0,-999.0,71,-99.99,,,-99.99,,2013-05-04 06:11:00,
2013-05-04 02:22:00,53.0,44.0,30.22,ESE,105,0.0,-999.0,72,-99.99,,,-99.99,,2013-05-04 06:22:00,
2013-05-04 02:32:00,51.0,43.0,30.22,ESE,105,0.0,-999.0,73,-99.99,,,-99.99,,2013-05-04 06:32:00,
2013-05-04 02:42:00,51.0,43.0,30.22,ESE,105,0.0,-999.0,73,-99.99,,,-99.99,,2013-05-04 06:42:00,
2013-05-04 02:52:00,51.0,44.0,30.22,ESE,105,0.0,-999.0,76,-99.99,,,-99.99,,2013-05-04 06:52:00,
2013-05-04 03:01:00,51.0,43.0,30.22,ESE,105,0.0,-999.0,73,-99.99,,,-99.99,,2013-05-04 07:01:00,
2013-05-04 03:11:00,51.0,43.0,30.22,ESE,105,0.0,-999.0,73,-99.99,,,-99.99,,2013-05-04 07:11:00,
2013-05-04 03:22:00,49.0,42.0,30.23,ESE,105,0.0,-999.0,76,-99.99,,,-99.99,,2013-05-04 07:22:00,
2013-05-04 03:32:00,50.0,43.0,30.22,ESE,112,2.0,-999.0,76,-99.99,,,-99.99,,2013-05-04 07:32:00,
2013-05-04 03:42:00,50.0,43.0,30.22,ESE,112,2.0,-999.0,76,-99.99,,,-99.99,,2013-05-04 07:42:00,
2013-05-04 03:52:00,53.0,43.0,30.22,SE,141,5.0,-999.0,68,-99.99,,,-99.99,,2013-05-04 07:52:00,
2013-05-04 04:02:00,52.0,42.0,30.22,SSE,162,4.0,-999.0,69,-99.99,,,-99.99,,2013-05-04 08:02:00,
2013-05-04 04:11:00,52.0,42.0,30.22,SSE,162,4.0,-999.0,69,-99.99,,,-99.99,,2013-05-04 08:11:00,
2013-05-04 04:22:00,49.0,41.0,30.23,SSW,206,2.0,-999.0,74,-99.99,,,-99.99,,2013-05-04 08:22:00,
2013-05-04 04:32:00,49.0,41.0,30.23,SSW,206,0.0,-999.0,74,-99.99,,,-99.99,,2013-05-04 08:32:00,
2013-05-04 04:42:00,49.0,41.0,30.23,SSW,206,0.0,-999.0,74,-99.99,,,-99.99,,2013-05-04 08:42:00,
2013-05-04 04:52:00,49.0,41.0,30.23,SSW,206,0.0,-999.0,74,-99.99,,,-99.99,,2013-05-04 08:52:00,
2013-05-04 05:02:00,48.0,40.0,30.24,SSW,206,0.0,-999.0,75,-99.99,,,-99.99,,2013-05-04 09:02:00,
2013-05-04 05:11:00,48.0,40.0,30.24,SSW,206,0.0,-999.0,75,-99.99,,,-99.99,,2013-05-04 09:11:00,
2013-05-04 05:22:00,46.0,40.0,30.24,SSW,206,0.0,-999.0,79,-99.99,,,-99.99,,2013-05-04 09:22:00,
2013-05-04 05:32:00,45.0,40.0,30.24,SSW,206,0.0,-999.0,82,-99.99,,,-99.99,,2013-05-04 09:32:00,
2013-05-04 05:42:00,45.0,40.0,30.24,SSW,206,0.0,-999.0,82,-99.99,,,-99.99,,2013-05-04 09:42:00,
2013-05-04 05:53:00,43.0,38.0,30.24,SSW,206,0.0,-999.0,83,-99.99,,,-99.99,,2013-05-04 09:53:00,
2013-05-04 06:03:00,43.0,39.0,30.24,SSW,206,0.0,-999.0,86,-99.99,,,-99.99,,2013-05-04 10:03:00,
2013-05-04 06:12:00,43.0,39.0,30.24,SSW,206,0.0,-999.0,86,-99.99,,,-99.99,,2013-05-04 10:12:00,
2013-05-04 06:23:00,42.0,38.0,30.24,SSW,206,0.0,-999.0,86,-99.99,,,-99.99,,2013-05-04 10:23:00,
2013-05-04 06:33:00,41.0,37.0,30.24,SSW,206,0.0,-999.0,87,-99.99,,,-99.99,,2013-05-04 10:33:00,
2013-05-04 06:42:00,41.0,37.0,30.24,SSW,206,0.0,-999.0,87,-99.99,,,-99.99,,2013-05-04 10:42:00,
2013-05-04 06:53:00,41.0,38.0,30.25,SSW,206,0.0,-999.0,88,-99.99,,,-99.99,,2013-05-04 10:53:00,
2013-05-04 07:02:00,41.0,38.0,30.25,SSW,206,0.0,-999.0,89,-99.99,,,-99.99,,2013-05-04 11:02:00,
2013-05-04 07:11:00,41.0,38.0,30.25,SSW,206,0.0,-999.0,89,-99.99,,,-99.99,,2013-05-04 11:11:00,
2013-05-04 07:21:00,42.0,40.0,30.25,SSW,206,0.0,-999.0,91,-99.99,,,-99.99,,2013-05-04 11:21:00,
2013-05-04 07:32:00,46.0,44.0,30.25,SSW,206,0.0,-999.0,91,-99.99,,,-99.99,,2013-05-04 11:32:00,
2013-05-04 07:45:00,46.0,44.0,30.25,SSW,206,0.0,-999.0,91,-99.99,,,-99.99,,2013-05-04 11:45:00,
2013-05-04 07:56:00,52.0,46.0,30.24,SSW,206,1.0,-999.0,80,-99.99,,,-99.99,,2013-05-04 11:56:00,
2013-05-04 08:08:00,55.0,47.0,30.24,SSW,206,0.0,-999.0,73,-99.99,,,-99.99,,2013-05-04 12:08:00,
2013-05-04 08:14:00,55.0,47.0,30.24,SSW,206,0.0,-999.0,73,-99.99,,,-99.99,,2013-05-04 12:14:00,
2013-05-04 08:29:00,59.0,47.0,30.24,ESE,122,3.0,-999.0,65,-99.99,,,-99.99,,2013-05-04 12:29:00,
2013-05-04 08:37:00,60.0,47.0,30.24,SE,138,3.0,-999.0,61,-99.99,,,-99.99,,2013-05-04 12:37:00,
2013-05-04 08:51:00,61.0,47.0,30.24,SE,128,5.0,-999.0,59,-99.99,,,-99.99,,2013-05-04 12:51:00,
2013-05-04 09:01:00,62.0,47.0,30.24,ESE,121,6.0,-999.0,57,-99.99,,,-99.99,,2013-05-04 13:01:00,
2013-05-04 09:11:00,62.0,47.0,30.24,ESE,121,6.0,-999.0,57,-99.99,,,-99.99,,2013-05-04 13:11:00,
2013-05-04 09:32:00,63.0,47.0,30.24,SE,134,8.0,-999.0,56,-99.99,,,-99.99,,2013-05-04 13:32:00,
2013-05-04 09:42:00,63.0,47.0,30.24,SE,134,8.0,-999.0,56,-99.99,,,-99.99,,2013-05-04 13:42:00,
2013-05-04 09:52:00,63.0,48.0,30.24,SE,140,8.0,-999.0,57,-99.99,,,-99.99,,2013-05-04 13:52:00,
2013-05-04 10:02:00,64.0,47.0,30.24,SSE,157,8.0,-999.0,55,-99.99,,,-99.99,,2013-05-04 14:02:00,
2013-05-04 10:11:00,64.0,47.0,30.24,SSE,157,8.0,-999.0,55,-99.99,,,-99.99,,2013-05-04 14:11:00,
2013-05-04 10:21:00,65.0,48.0,30.24,SSE,148,8.0,-999.0,55,-99.99,,,-99.99,,2013-05-04 14:21:00,
2013-05-04 10:32:00,66.0,48.0,30.24,SSE,165,8.0,-999.0,53,-99.99,,,-99.99,,2013-05-04 14:32:00,
2013-05-04 10:42:00,66.0,48.0,30.24,SSE,165,8.0,-999.0,53,-99.99,,,-99.99,,2013-05-04 14:42:00,
2013-05-04 10:51:00,67.0,49.0,30.24,SSE,167,8.0,-999.0,53,-99.99,,,-99.99,,2013-05-04 14:51:00,
2013-05-04 11:02:00,68.0,49.0,30.24,South,169,9.0,-999.0,51,-99.99,,,-99.99,,2013-05-04 15:02:00,
2013-05-04 11:12:00,68.0,49.0,30.24,South,169,9.0,-999.0,51,-99.99,,,-99.99,,2013-05-04 15:12:00,
2013-05-04 11:22:00,68.0,49.0,30.23,South,169,8.0,-999.0,50,-99.99,,,-99.99,,2013-05-04 15:22:00,
2013-05-04 11:33:00,69.0,48.0,30.24,SSE,168,8.0,-999.0,48,-99.99,,,-99.99,,2013-05-04 15:33:00,
2013-05-04 11:43:00,69.0,48.0,30.24,SSE,168,8.0,-999.0,48,-99.99,,,-99.99,,2013-05-04 15:43:00,
2013-05-04 11:52:00,69.0,51.0,30.23,SSW,198,8.0,-999.0,53,-99.99,,,-99.99,,2013-05-04 15:52:00,
2013-05-04 12:03:00,69.0,49.0,30.24,SSW,196,8.0,-999.0,49,-99.99,,,-99.99,,2013-05-04 16:03:00,
2013-05-04 12:12:00,69.0,49.0,30.24,SSW,196,8.0,-999.0,49,-99.99,,,-99.99,,2013-05-04 16:12:00,
2013-05-04 12:22:00,69.0,50.0,30.24,SSW,207,9.0,-999.0,50,-99.99,,,-99.99,,2013-05-04 16:22:00,
2013-05-04 12:33:00,69.0,50.0,30.24,SSE,157,8.0,-999.0,51,-99.99,,,-99.99,,2013-05-04 16:33:00,
2013-05-04 12:42:00,69.0,50.0,30.24,SSE,157,8.0,-999.0,51,-99.99,,,-99.99,,2013-05-04 16:42:00,
2013-05-04 12:52:00,69.0,50.0,30.24,SSE,157,8.0,-999.0,51,-99.99,,,-99.99,,2013-05-04 16:52:00,
2013-05-04 13:02:00,69.0,49.0,30.24,South,181,10.0,-999.0,49,-99.99,,,-99.99,,2013-05-04 17:02:00,
2013-05-04 13:12:00,69.0,49.0,30.24,South,181,10.0,-999.0,49,-99.99,,,-99.99,,2013-05-04 17:12:00,
2013-05-04 13:22:00,70.0,52.0,30.23,South,175,9.0,-999.0,52,-99.99,,,-99.99,,2013-05-04 17:22:00,
2013-05-04 13:32:00,70.0,50.0,30.23,South,171,10.0,-999.0,50,-99.99,,,-99.99,,2013-05-04 17:32:00,
2013-05-04 13:42:00,70.0,50.0,30.23,South,171,10.0,-999.0,50,-99.99,,,-99.99,,2013-05-04 17:42:00,
2013-05-04 13:52:00,71.0,50.0,30.23,SSE,159,8.0,-999.0,48,-99.99,,,-99.99,,2013-05-04 17:52:00,
2013-05-04 14:01:00,72.0,51.0,30.23,SSE,153,9.0,-999.0,48,-99.99,,,-99.99,,2013-05-04 18:01:00,
2013-05-04 14:12:00,72.0,51.0,30.23,SSE,153,9.0,-999.0,48,-99.99,,,-99.99,,2013-05-04 18:12:00,
2013-05-04 14:22:00,72.0,52.0,30.23,ESE,123,10.0,-999.0,50,-99.99,,,-99.99,,2013-05-04 18:22:00,
2013-05-04 14:32:00,72.0,51.0,30.23,SE,138,10.0,-999.0,48,-99.99,,,-99.99,,2013-05-04 18:32:00,
2013-05-04 14:42:00,72.0,51.0,30.23,SE,138,10.0,-999.0,48,-99.99,,,-99.99,,2013-05-04 18:42:00,
2013-05-04 14:52:00,72.0,50.0,30.23,SSE,153,11.0,-999.0,46,-99.99,,,-99.99,,2013-05-04 18:52:00,
2013-05-04 15:02:00,70.0,49.0,30.23,SE,142,12.0,-999.0,48,-99.99,,,-99.99,,2013-05-04 19:02:00,
2013-05-04 15:11:00,70.0,49.0,30.23,SE,142,12.0,-999.0,48,-99.99,,,-99.99,,2013-05-04 19:11:00,
2013-05-04 15:21:00,70.0,49.0,30.23,SE,129,11.0,-999.0,48,-99.99,,,-99.99,,2013-05-04 19:21:00,
2013-05-04 15:32:00,70.0,50.0,30.23,SE,133,13.0,-999.0,49,-99.99,,,-99.99,,2013-05-04 19:32:00,
2013-05-04 15:42:00,70.0,50.0,30.23,SE,133,13.0,-999.0,49,-99.99,,,-99.99,,2013-05-04 19:42:00,
2013-05-04 15:52:00,70.0,51.0,30.22,SSE,150,14.0,-999.0,51,-99.99,,,-99.99,,2013-05-04 19:52:00,
2013-05-04 16:02:00,71.0,50.0,30.22,SSE,167,13.0,-999.0,48,-99.99,,,-99.99,,2013-05-04 20:02:00,
2013-05-04 16:11:00,71.0,50.0,30.22,SSE,167,13.0,-999.0,48,-99.99,,,-99.99,,2013-05-04 20:11:00,
2013-05-04 16:22:00,71.0,52.0,30.22,SE,138,13.0,-999.0,51,-99.99,,,-99.99,,2013-05-04 20:22:00,
2013-05-04 16:32:00,71.0,51.0,30.21,SSE,152,14.0,-999.0,49,-99.99,,,-99.99,,2013-05-04 20:32:00,
2013-05-04 16:42:00,71.0,51.0,30.21,SSE,152,14.0,-999.0,49,-99.99,,,-99.99,,2013-05-04 20:42:00,
2013-05-04 16:52:00,70.0,50.0,30.21,SSE,147,15.0,-999.0,49,-99.99,,,-99.99,,2013-05-04 20:52:00,
2013-05-04 17:02:00,70.0,50.0,30.22,SSE,155,14.0,-999.0,49,-99.99,,,-99.99,,2013-05-04 21:02:00,
2013-05-04 17:12:00,70.0,50.0,30.22,SSE,155,14.0,-999.0,49,-99.99,,,-99.99,,2013-05-04 21:12:00,
2013-05-04 17:22:00,70.0,49.0,30.22,SE,144,14.0,-999.0,48,-99.99,,,-99.99,,2013-05-04 21:22:00,
2013-05-04 17:33:00,70.0,48.0,30.22,SE,134,13.0,-999.0,46,-99.99,,,-99.99,,2013-05-04 21:33:00,
2013-05-04 17:43:00,70.0,48.0,30.22,SE,134,13.0,-999.0,46,-99.99,,,-99.99,,2013-05-04 21:43:00,
2013-05-04 17:53:00,69.0,48.0,30.21,SE,133,13.0,-999.0,47,-99.99,,,-99.99,,2013-05-04 21:53:00,
2013-05-04 18:03:00,69.0,48.0,30.22,SE,133,13.0,-999.0,48,-99.99,,,-99.99,,2013-05-04 22:03:00,
2013-05-04 18:12:00,69.0,48.0,30.22,SE,133,13.0,-999.0,48,-99.99,,,-99.99,,2013-05-04 22:12:00,
2013-05-04 18:22:00,68.0,49.0,30.22,SE,141,13.0,-999.0,51,-99.99,,,-99.99,,2013-05-04 22:22:00,
2013-05-04 18:33:00,68.0,48.0,30.22,SE,146,14.0,-999.0,49,-99.99,,,-99.99,,2013-05-04 22:33:00,
2013-05-04 18:42:00,68.0,48.0,30.22,SE,146,14.0,-999.0,49,-99.99,,,-99.99,,2013-05-04 22:42:00,
2013-05-04 18:52:00,67.0,48.0,30.22,SE,134,13.0,-999.0,51,-99.99,,,-99.99,,2013-05-04 22:52:00,
2013-05-04 19:02:00,66.0,48.0,30.22,SE,137,11.0,-999.0,52,-99.99,,,-99.99,,2013-05-04 23:02:00,
2013-05-04 19:12:00,66.0,48.0,30.22,SE,137,11.0,-999.0,52,-99.99,,,-99.99,,2013-05-04 23:12:00,
2013-05-04 19:22:00,66.0,47.0,30.22,SE,142,12.0,-999.0,51,-99.99,,,-99.99,,2013-05-04 23:22:00,
2013-05-04 19:32:00,66.0,48.0,30.21,SSE,152,9.0,-999.0,52,-99.99,,,-99.99,,2013-05-04 23:32:00,
2013-05-04 19:42:00,66.0,48.0,30.21,SSE,152,9.0,-999.0,52,-99.99,,,-99.99,,2013-05-04 23:42:00,
2013-05-04 19:52:00,65.0,47.0,30.21,SE,142,9.0,-999.0,52,-99.99,,,-99.99,,2013-05-04 23:52:00,
2013-05-04 20:02:00,64.0,47.0,30.22,SE,141,9.0,-999.0,53,-99.99,,,-99.99,,2013-05-05 00:02:00,
2013-05-04 20:11:00,64.0,47.0,30.22,SE,141,9.0,-999.0,53,-99.99,,,-99.99,,2013-05-05 00:11:00,
2013-05-04 20:22:00,64.0,47.0,30.22,SE,144,5.0,-999.0,55,-99.99,,,-99.99,,2013-05-05 00:22:00,
2013-05-04 20:32:00,63.0,47.0,30.22,SE,142,3.0,-999.0,56,-99.99,,,-99.99,,2013-05-05 00:32:00,
2013-05-04 20:42:00,63.0,47.0,30.22,SE,142,3.0,-999.0,56,-99.99,,,-99.99,,2013-05-05 00:42:00,
2013-05-04 20:52:00,62.0,47.0,30.22,SSE,154,3.0,-999.0,57,-99.99,,,-99.99,,2013-05-05 00:52:00,
2013-05-04 21:01:00,60.0,47.0,30.22,SSE,150,2.0,-999.0,61,-99.99,,,-99.99,,2013-05-05 01:01:00,
2013-05-04 21:11:00,60.0,47.0,30.22,SSE,150,2.0,-999.0,61,-99.99,,,-99.99,,2013-05-05 01:11:00,
2013-05-04 21:22:00,59.0,47.0,30.22,SSE,150,0.0,-999.0,65,-99.99,,,-99.99,,2013-05-05 01:22:00,
2013-05-04 21:32:00,57.0,46.0,30.22,SSE,150,0.0,-999.0,67,-99.99,,,-99.99,,2013-05-05 01:32:00,
2013-05-04 21:42:00,57.0,46.0,30.22,SSE,150,0.0,-999.0,67,-99.99,,,-99.99,,2013-05-05 01:42:00,
2013-05-04 21:52:00,56.0,46.0,30.23,SSE,148,1.0,-999.0,68,-99.99,,,-99.99,,2013-05-05 01:52:00,
2013-05-04 22:02:00,56.0,46.0,30.23,SE,144,1.0,-999.0,68,-99.99,,,-99.99,,2013-05-05 02:02:00,
2013-05-04 22:12:00,56.0,46.0,30.23,SE,144,1.0,-999.0,68,-99.99,,,-99.99,,2013-05-05 02:12:00,
2013-05-04 22:22:00,55.0,45.0,30.24,SE,144,0.0,-999.0,69,-99.99,,,-99.99,,2013-05-05 02:22:00,
2013-05-04 22:32:00,55.0,45.0,30.24,SE,144,0.0,-999.0,70,-99.99,,,-99.99,,2013-05-05 02:32:00,
2013-05-04 22:42:00,55.0,45.0,30.24,SE,144,0.0,-999.0,70,-99.99,,,-99.99,,2013-05-05 02:42:00,
2013-05-04 22:52:00,54.0,44.0,30.24,SE,144,0.0,-999.0,70,-99.99,,,-99.99,,2013-05-05 02:52:00,
2013-05-04 23:01:00,53.0,44.0,30.24,SE,144,1.0,-999.0,72,-99.99,,,-99.99,,2013-05-05 03:01:00,
2013-05-04 23:12:00,53.0,44.0,30.24,SE,144,1.0,-999.0,72,-99.99,,,-99.99,,2013-05-05 03:12:00,
2013-05-04 23:22:00,51.0,44.0,30.24,SE,144,0.0,-999.0,76,-99.99,,,-99.99,,2013-05-05 03:22:00,
2013-05-04 23:33:00,50.0,44.0,30.24,SE,144,0.0,-999.0,80,-99.99,,,-99.99,,2013-05-05 03:33:00,
2013-05-04 23:42:00,50.0,44.0,30.24,SE,144,0.0,-999.0,80,-99.99,,,-99.99,,2013-05-05 03:42:00,
2013-05-04 23:53:00,49.0,44.0,30.24,SE,144,0.0,-999.0,82,-99.99,,,-99.99,,2013-05-05 03:53:00,